createdAt,value
2018-12-27T00:00:30.243Z,28.80
2018-12-27T00:02:58.522Z,31.02
2018-12-27T00:05:26.919Z,29.85
2018-12-27T00:07:55.253Z,30.30
2018-12-27T00:10:23.596Z,30.52
2018-12-27T00:12:51.892Z,29.00
2018-12-27T00:15:20.315Z,26.70
2018-12-27T00:17:48.655Z,24.00
2018-12-27T00:20:16.956Z,23.42
2018-12-27T00:22:45.231Z,24.18
2018-12-27T00:25:13.505Z,25.52
2018-12-27T00:27:41.835Z,22.60
2018-12-27T00:30:10.448Z,24.65
2018-12-27T00:32:39.411Z,22.02
2018-12-27T00:35:09.918Z,23.75
2018-12-27T00:37:38.533Z,21.50
2018-12-27T00:40:07.141Z,20.32
2018-12-27T00:42:35.789Z,20.82
2018-12-27T00:45:04.402Z,20.77
2018-12-27T00:47:33.013Z,19.30
2018-12-27T00:50:01.659Z,18.05
2018-12-27T00:52:30.675Z,19.87
2018-12-27T00:54:59.322Z,20.27
2018-12-27T00:57:27.957Z,21.93
2018-12-27T00:59:56.647Z,20.05
2018-12-27T01:02:25.263Z,19.12
2018-12-27T01:04:54.731Z,19.75
2018-12-27T01:07:26.292Z,19.55
2018-12-27T01:09:54.975Z,20.08
2018-12-27T01:12:23.607Z,20.77
2018-12-27T01:14:52.215Z,21.45
2018-12-27T01:17:20.819Z,21.87
2018-12-27T01:19:49.468Z,20.02
2018-12-27T01:22:18.153Z,20.17
2018-12-27T01:24:46.759Z,19.85
2018-12-27T01:27:15.402Z,20.50
2018-12-27T01:29:44.011Z,18.20
2018-12-27T01:32:12.619Z,18.92
2018-12-27T01:34:41.320Z,18.23
2018-12-27T01:37:09.928Z,18.32
2018-12-27T01:39:38.641Z,17.48
2018-12-27T01:42:07.323Z,19.82
2018-12-27T01:44:36.008Z,19.67
2018-12-27T01:47:04.698Z,18.12
2018-12-27T01:49:33.422Z,17.73
2018-12-27T01:52:02.104Z,18.52
2018-12-27T01:54:30.712Z,17.15
2018-12-27T01:56:59.361Z,18.62
2018-12-27T01:59:28.050Z,17.37
2018-12-27T02:01:56.726Z,17.75
2018-12-27T02:04:25.447Z,16.35
2018-12-27T02:06:54.128Z,15.98
2018-12-27T02:09:22.740Z,15.75
2018-12-27T02:11:51.370Z,16.90
2018-12-27T02:14:19.983Z,16.12
2018-12-27T02:16:48.598Z,15.40
2018-12-27T02:19:17.262Z,16.75
2018-12-27T02:21:45.877Z,16.48
2018-12-27T02:24:14.485Z,16.55
2018-12-27T02:26:43.187Z,15.35
2018-12-27T02:29:11.796Z,16.52
2018-12-27T02:31:40.472Z,17.15
2018-12-27T02:34:10.520Z,17.98
2018-12-27T02:36:39.131Z,18.15
2018-12-27T02:39:07.881Z,17.82
2018-12-27T02:41:36.523Z,16.12
2018-12-27T02:44:05.207Z,15.35
2018-12-27T02:46:33.815Z,16.17
2018-12-27T02:49:02.464Z,17.52
2018-12-27T02:51:31.071Z,15.93
2018-12-27T02:53:59.683Z,17.17
2018-12-27T02:56:28.798Z,16.52
2018-12-27T02:58:57.504Z,16.48
2018-12-27T03:01:26.224Z,16.55
2018-12-27T03:03:54.953Z,15.53
2018-12-27T03:06:23.628Z,15.28
2018-12-27T03:08:52.284Z,15.68
2018-12-27T03:11:20.931Z,14.87
2018-12-27T03:13:49.544Z,15.58
2018-12-27T03:16:18.159Z,15.55
2018-12-27T03:18:46.867Z,16.52
2018-12-27T03:21:15.488Z,16.77
2018-12-27T03:23:44.168Z,16.23
2018-12-27T03:26:12.803Z,15.55
2018-12-27T03:28:41.415Z,15.68
2018-12-27T03:31:10.029Z,14.13
2018-12-27T03:33:41.432Z,15.32
2018-12-27T03:36:10.121Z,15.25
2018-12-27T03:38:38.735Z,15.63
2018-12-27T03:41:07.374Z,16.10
2018-12-27T03:43:36.056Z,15.95
2018-12-27T03:46:04.744Z,16.57
2018-12-27T03:48:33.937Z,16.15
2018-12-27T03:51:02.667Z,15.70
2018-12-27T03:53:31.343Z,15.68
2018-12-27T03:55:59.987Z,16.15
2018-12-27T03:58:28.672Z,15.60
2018-12-27T04:00:57.282Z,14.75
2018-12-27T04:03:25.922Z,14.58
2018-12-27T04:05:55.532Z,16.77
2018-12-27T04:08:24.190Z,15.43
2018-12-27T04:10:53.296Z,16.60
2018-12-27T04:13:21.917Z,15.68
2018-12-27T04:15:50.260Z,16.95
2018-12-27T04:18:18.561Z,18.57
2018-12-27T04:20:46.828Z,15.32
2018-12-27T04:23:15.233Z,15.38
2018-12-27T04:25:43.605Z,17.17
2018-12-27T04:28:11.952Z,15.50
2018-12-27T04:30:40.223Z,14.90
2018-12-27T04:33:11.779Z,16.85
2018-12-27T04:35:40.058Z,16.42
2018-12-27T04:38:08.407Z,16.45
2018-12-27T04:40:36.712Z,16.42
2018-12-27T04:43:04.987Z,18.00
2018-12-27T04:45:33.351Z,16.23
2018-12-27T04:48:01.721Z,17.23
2018-12-27T04:50:29.991Z,18.02
2018-12-27T04:52:58.271Z,16.30
2018-12-27T04:55:26.651Z,16.05
2018-12-27T04:57:54.920Z,16.67
2018-12-27T05:00:23.195Z,16.57
2018-12-27T05:02:51.499Z,17.77
2018-12-27T05:05:20.089Z,18.20
2018-12-27T05:07:48.361Z,17.65
2018-12-27T05:10:16.736Z,17.82
2018-12-27T05:12:45.024Z,17.55
2018-12-27T05:15:13.300Z,18.57
2018-12-27T05:17:41.737Z,16.55
2018-12-27T05:20:10.009Z,17.73
2018-12-27T05:22:38.294Z,17.92
2018-12-27T05:25:06.665Z,16.87
2018-12-27T05:27:34.945Z,17.62
2018-12-27T05:30:03.285Z,17.17
2018-12-27T05:32:31.585Z,18.00
2018-12-27T05:34:59.858Z,18.02
2018-12-27T05:37:28.202Z,15.68
2018-12-27T05:39:56.584Z,17.25
2018-12-27T05:42:24.856Z,18.55
2018-12-27T05:44:53.305Z,16.00
2018-12-27T05:47:21.671Z,16.60
2018-12-27T05:49:49.949Z,18.40
2018-12-27T05:52:18.219Z,16.55
2018-12-27T05:54:46.837Z,17.12
2018-12-27T05:57:15.164Z,16.07
2018-12-27T05:59:43.432Z,18.10
2018-12-27T06:02:11.735Z,16.80
2018-12-27T06:04:40.014Z,18.75
2018-12-27T06:07:08.289Z,17.32
2018-12-27T06:09:36.587Z,18.35
2018-12-27T06:12:04.864Z,16.15
2018-12-27T06:14:33.145Z,18.92
2018-12-27T06:17:01.511Z,16.82
2018-12-27T06:19:29.779Z,16.42
2018-12-27T06:21:58.060Z,17.52
2018-12-27T06:24:27.352Z,16.77
2018-12-27T06:26:55.632Z,16.97
2018-12-27T06:29:23.910Z,16.60
2018-12-27T06:31:52.287Z,17.48
2018-12-27T06:34:20.625Z,17.57
2018-12-27T06:36:48.896Z,17.02
2018-12-27T06:39:17.196Z,17.98
2018-12-27T06:41:45.469Z,19.80
2018-12-27T06:44:13.844Z,18.42
2018-12-27T06:46:42.204Z,17.15
2018-12-27T06:49:10.555Z,19.17
2018-12-27T06:51:38.851Z,19.23
2018-12-27T06:54:07.170Z,18.27
2018-12-27T06:56:35.499Z,16.70
2018-12-27T06:59:03.775Z,17.75
2018-12-27T07:01:32.076Z,18.73
2018-12-27T07:04:00.358Z,17.98
2018-12-27T07:06:28.767Z,17.57
2018-12-27T07:08:57.591Z,16.85
2018-12-27T07:11:25.943Z,18.27
2018-12-27T07:13:54.303Z,19.80
2018-12-27T07:16:22.672Z,17.07
2018-12-27T07:18:50.943Z,19.35
2018-12-27T07:21:19.219Z,16.87
2018-12-27T07:23:47.521Z,17.73
2018-12-27T07:26:15.787Z,17.15
2018-12-27T07:28:44.059Z,17.27
2018-12-27T07:31:12.357Z,20.65
2018-12-27T07:33:40.664Z,18.15
2018-12-27T07:36:09.022Z,19.57
2018-12-27T07:38:38.104Z,18.45
2018-12-27T07:41:07.319Z,21.12
2018-12-27T07:43:35.663Z,20.50
2018-12-27T07:46:10.856Z,19.52
2018-12-27T07:48:34.880Z,19.98
2018-12-27T07:51:03.157Z,18.85
2018-12-27T07:53:31.992Z,19.90
2018-12-27T07:56:00.264Z,21.62
2018-12-27T07:58:28.539Z,19.67
2018-12-27T08:00:56.906Z,21.30
2018-12-27T08:03:25.229Z,22.40
2018-12-27T08:05:53.527Z,22.50
2018-12-27T08:08:21.835Z,24.07
2018-12-27T08:10:50.112Z,23.75
2018-12-27T08:13:18.384Z,24.30
2018-12-27T08:15:46.769Z,25.57
2018-12-27T08:18:15.040Z,22.52
2018-12-27T08:20:43.379Z,24.35
2018-12-27T08:23:11.757Z,22.85
2018-12-27T08:25:40.103Z,23.85
2018-12-27T08:28:08.384Z,23.40
2018-12-27T08:30:36.749Z,26.77
2018-12-27T08:33:05.020Z,26.97
2018-12-27T08:35:33.360Z,24.90
2018-12-27T08:38:01.656Z,26.42
2018-12-27T08:40:30.003Z,26.73
2018-12-27T08:42:58.283Z,28.00
2018-12-27T08:45:26.589Z,27.60
2018-12-27T08:47:54.975Z,25.65
2018-12-27T08:50:23.248Z,27.67
2018-12-27T08:52:51.584Z,28.20
2018-12-27T08:55:19.851Z,28.47
2018-12-27T08:57:48.119Z,27.52
2018-12-27T09:00:16.415Z,24.75
2018-12-27T09:02:44.688Z,28.47
2018-12-27T09:05:18.849Z,28.60
2018-12-27T09:07:43.256Z,28.45
2018-12-27T09:10:11.624Z,28.87
2018-12-27T09:12:39.896Z,29.82
2018-12-27T09:15:08.199Z,31.65
2018-12-27T09:17:36.731Z,31.48
2018-12-27T09:20:07.869Z,36.00
2018-12-27T09:22:36.267Z,36.00
2018-12-27T09:25:05.235Z,33.05
2018-12-27T09:27:33.513Z,35.05
2018-12-27T09:30:01.835Z,32.50
2018-12-27T09:32:30.177Z,31.57
2018-12-27T09:34:58.450Z,31.73
2018-12-27T09:37:26.766Z,32.55
2018-12-27T09:39:55.108Z,32.17
2018-12-27T09:42:23.380Z,32.40
2018-12-27T09:44:52.882Z,32.75
2018-12-27T09:47:21.152Z,35.33
2018-12-27T09:49:49.425Z,33.45
2018-12-27T09:52:17.794Z,33.95
2018-12-27T09:54:46.157Z,32.63
2018-12-27T09:57:14.440Z,36.30
2018-12-27T09:59:42.807Z,33.48
2018-12-27T10:02:11.153Z,31.17
2018-12-27T10:04:39.571Z,32.35
2018-12-27T10:07:07.871Z,32.53
2018-12-27T10:09:36.235Z,34.88
2018-12-27T10:12:04.507Z,33.45
2018-12-27T10:14:33.159Z,30.20
2018-12-27T10:17:01.432Z,36.05
2018-12-27T10:19:29.708Z,33.75
2018-12-27T10:21:58.003Z,28.77
2018-12-27T10:24:26.278Z,31.55
2018-12-27T10:26:54.640Z,29.98
2018-12-27T10:29:22.941Z,30.08
2018-12-27T10:31:51.226Z,31.02
2018-12-27T10:34:19.496Z,34.70
2018-12-27T10:36:47.791Z,30.80
2018-12-27T10:39:16.068Z,29.63
2018-12-27T10:41:44.422Z,29.48
2018-12-27T10:44:12.747Z,33.20
2018-12-27T10:46:41.080Z,31.23
2018-12-27T10:49:09.352Z,33.88
2018-12-27T10:51:37.647Z,28.77
2018-12-27T10:54:05.933Z,29.63
2018-12-27T10:56:34.275Z,28.75
2018-12-27T10:59:02.584Z,28.52
2018-12-27T11:01:30.856Z,26.37
2018-12-27T11:03:59.203Z,29.25
2018-12-27T11:06:27.507Z,27.65
2018-12-27T11:08:55.776Z,26.73
2018-12-27T11:11:24.043Z,26.27
2018-12-27T11:13:52.348Z,26.15
2018-12-27T11:16:20.624Z,26.50
2018-12-27T11:18:48.900Z,32.38
2018-12-27T11:21:17.280Z,35.80
2018-12-27T11:23:45.552Z,36.25
2018-12-27T11:26:13.937Z,33.18
2018-12-27T11:28:42.284Z,32.63
2018-12-27T11:31:10.560Z,30.30
2018-12-27T11:33:40.220Z,25.17
2018-12-27T11:36:08.589Z,25.02
2018-12-27T11:38:36.931Z,26.95
2018-12-27T11:41:05.222Z,23.62
2018-12-27T11:43:33.596Z,23.30
2018-12-27T11:46:01.874Z,22.95
2018-12-27T11:48:30.219Z,21.93
2018-12-27T11:50:58.532Z,22.50
2018-12-27T11:53:26.882Z,21.00
2018-12-27T11:55:55.155Z,20.30
2018-12-27T11:58:23.443Z,19.37
2018-12-27T12:00:51.720Z,19.82
2018-12-27T12:03:19.988Z,19.52
2018-12-27T12:05:48.294Z,18.52
2018-12-27T12:08:17.974Z,19.75
2018-12-27T12:10:46.442Z,20.05
2018-12-27T12:13:14.807Z,18.90
2018-12-27T12:15:43.079Z,18.67
2018-12-27T12:18:11.492Z,18.00
2018-12-27T12:20:39.794Z,18.80
2018-12-27T12:23:08.140Z,18.20
2018-12-27T12:25:36.408Z,17.95
2018-12-27T12:28:05.776Z,19.52
2018-12-27T12:30:34.051Z,17.80
2018-12-27T12:33:02.432Z,17.92
2018-12-27T12:35:30.777Z,19.32
2018-12-27T12:37:59.130Z,18.73
2018-12-27T12:40:27.476Z,17.42
2018-12-27T12:42:55.787Z,15.88
2018-12-27T12:45:24.060Z,17.70
2018-12-27T12:47:52.331Z,16.93
2018-12-27T12:50:20.712Z,15.28
2018-12-27T12:52:48.987Z,15.72
2018-12-27T12:55:17.274Z,15.30
2018-12-27T12:57:45.646Z,15.35
2018-12-27T13:00:13.916Z,15.88
2018-12-27T13:02:42.200Z,16.40
2018-12-27T13:05:10.705Z,25.90
2018-12-27T13:07:38.989Z,30.48
2018-12-27T13:10:07.331Z,49.85
2018-12-27T13:12:35.636Z,41.08
2018-12-27T13:15:04.076Z,38.58
2018-12-27T13:17:32.440Z,20.10
2018-12-27T13:20:00.815Z,18.42
2018-12-27T13:22:29.091Z,19.17
2018-12-27T13:24:57.367Z,17.05
2018-12-27T13:27:25.655Z,21.70
2018-12-27T13:29:53.947Z,14.05
2018-12-27T13:32:22.290Z,15.72
2018-12-27T13:34:50.605Z,16.00
2018-12-27T13:37:18.952Z,13.55
2018-12-27T13:39:47.232Z,14.50
2018-12-27T13:42:15.531Z,15.70
2018-12-27T13:44:43.807Z,17.62
2018-12-27T13:47:12.152Z,17.30
2018-12-27T13:49:40.543Z,17.15
2018-12-27T13:52:08.891Z,15.30
2018-12-27T13:54:38.080Z,23.52
2018-12-27T13:57:06.380Z,34.20
2018-12-27T13:59:34.675Z,13.68
2018-12-27T14:02:02.951Z,10.78
2018-12-27T14:04:31.253Z,10.45
2018-12-27T14:06:59.603Z,18.85
2018-12-27T14:09:27.875Z,18.27
2018-12-27T14:11:56.171Z,16.17
2018-12-27T14:14:24.448Z,11.22
2018-12-27T14:16:52.731Z,12.53
2018-12-27T14:19:21.029Z,12.75
2018-12-27T14:21:49.305Z,15.43
2018-12-27T14:24:17.579Z,22.48
2018-12-27T14:26:45.880Z,26.57
2018-12-27T14:29:14.153Z,25.88
2018-12-27T14:31:42.423Z,22.05
2018-12-27T14:34:10.728Z,24.10
2018-12-27T14:36:39.852Z,19.98
2018-12-27T14:39:08.450Z,18.73
2018-12-27T14:41:36.823Z,21.25
2018-12-27T14:44:05.097Z,12.10
2018-12-27T14:46:33.445Z,10.70
2018-12-27T14:49:01.807Z,11.15
2018-12-27T14:51:30.093Z,11.60
2018-12-27T14:53:58.432Z,10.48
2018-12-27T14:56:26.738Z,9.75
2018-12-27T14:58:55.080Z,9.53
2018-12-27T15:01:23.338Z,8.53
2018-12-27T15:03:51.632Z,9.63
2018-12-27T15:06:19.983Z,10.63
2018-12-27T15:08:48.257Z,10.95
2018-12-27T15:11:16.552Z,8.95
2018-12-27T15:13:44.887Z,9.80
2018-12-27T15:16:13.160Z,9.25
2018-12-27T15:18:41.457Z,10.13
2018-12-27T15:21:09.733Z,9.58
2018-12-27T15:23:38.063Z,9.65
2018-12-27T15:26:06.360Z,9.73
2018-12-27T15:28:34.629Z,9.13
2018-12-27T15:31:02.898Z,8.75
2018-12-27T15:33:31.180Z,8.80
2018-12-27T15:35:59.451Z,9.53
2018-12-27T15:38:27.716Z,9.10
2018-12-27T15:40:56.016Z,7.90
2018-12-27T15:43:24.299Z,8.73
2018-12-27T15:45:52.582Z,8.05
2018-12-27T15:48:20.942Z,9.00
2018-12-27T15:50:49.299Z,8.83
2018-12-27T15:53:17.563Z,9.58
2018-12-27T15:55:45.873Z,10.08
2018-12-27T15:58:14.215Z,9.33
2018-12-27T16:00:42.487Z,9.50
2018-12-27T16:03:10.791Z,9.45
2018-12-27T16:05:39.060Z,10.10
2018-12-27T16:08:07.333Z,10.25
2018-12-27T16:10:35.629Z,10.25
2018-12-27T16:13:03.895Z,10.45
2018-12-27T16:15:32.166Z,10.80
2018-12-27T16:18:00.498Z,11.63
2018-12-27T16:20:28.833Z,12.28
2018-12-27T16:22:57.195Z,11.70
2018-12-27T16:25:25.510Z,12.47
2018-12-27T16:27:53.852Z,13.90
2018-12-27T16:30:22.148Z,13.80
2018-12-27T16:32:50.441Z,12.90
2018-12-27T16:35:18.711Z,15.32
2018-12-27T16:37:46.985Z,14.85
2018-12-27T16:40:15.423Z,15.40
2018-12-27T16:42:43.702Z,14.43
2018-12-27T16:45:12.048Z,12.75
2018-12-27T16:47:40.911Z,15.25
2018-12-27T16:50:09.751Z,16.48
2018-12-27T16:52:38.028Z,23.22
2018-12-27T16:55:06.342Z,23.60
2018-12-27T16:57:34.618Z,19.62
2018-12-27T17:00:03.632Z,21.75
2018-12-27T17:02:32.216Z,24.12
2018-12-27T17:05:00.488Z,23.02
2018-12-27T17:07:28.755Z,23.18
2018-12-27T17:09:57.064Z,25.68
2018-12-27T17:12:25.331Z,25.60
2018-12-27T17:14:53.608Z,23.92
2018-12-27T17:17:21.911Z,29.05
2018-12-27T17:19:50.183Z,29.37
2018-12-27T17:22:18.447Z,27.48
2018-12-27T17:24:46.750Z,23.27
2018-12-27T17:27:15.103Z,25.00
2018-12-27T17:29:43.378Z,26.55
2018-12-27T17:32:12.168Z,21.20
2018-12-27T17:34:40.512Z,20.75
2018-12-27T17:37:08.784Z,22.98
2018-12-27T17:39:37.960Z,25.25
2018-12-27T17:42:06.571Z,27.13
2018-12-27T17:44:34.928Z,22.02
2018-12-27T17:47:03.238Z,23.52
2018-12-27T17:49:31.509Z,17.60
2018-12-27T17:51:59.784Z,21.45
2018-12-27T17:54:28.096Z,21.52
2018-12-27T17:56:56.368Z,18.90
2018-12-27T17:59:26.943Z,19.02
2018-12-27T18:01:55.228Z,16.73
2018-12-27T18:04:23.494Z,14.75
2018-12-27T18:06:51.767Z,16.37
2018-12-27T18:09:20.068Z,17.05
2018-12-27T18:11:48.341Z,14.60
2018-12-27T18:14:16.607Z,16.73
2018-12-27T18:16:44.992Z,15.28
2018-12-27T18:19:13.339Z,15.23
2018-12-27T18:21:41.683Z,15.53
2018-12-27T18:24:10.231Z,14.60
2018-12-27T18:26:38.568Z,14.15
2018-12-27T18:29:06.837Z,17.92
2018-12-27T18:31:35.142Z,17.40
2018-12-27T18:34:03.412Z,15.20
2018-12-27T18:36:31.684Z,12.23
2018-12-27T18:38:59.996Z,11.85
2018-12-27T18:41:28.272Z,12.05
2018-12-27T18:43:56.612Z,13.45
2018-12-27T18:46:24.911Z,11.95
2018-12-27T18:48:53.182Z,9.35
2018-12-27T18:51:21.452Z,11.68
2018-12-27T18:53:49.757Z,11.05
2018-12-27T18:56:18.035Z,11.78
2018-12-27T18:58:46.376Z,14.20
2018-12-27T19:01:14.755Z,13.85
2018-12-27T19:03:43.101Z,15.58
2018-12-27T19:06:11.388Z,9.78
2018-12-27T19:08:39.782Z,9.75
2018-12-27T19:11:44.524Z,10.20
2018-12-27T19:14:12.816Z,8.80
2018-12-27T19:16:41.084Z,9.50
2018-12-27T19:19:09.435Z,10.05
2018-12-27T19:21:41.006Z,10.05
2018-12-27T19:24:09.488Z,13.08
2018-12-27T19:26:37.827Z,15.53
2018-12-27T19:29:06.621Z,17.98
2018-12-27T19:31:34.897Z,16.73
2018-12-27T19:34:03.217Z,18.85
2018-12-27T19:36:31.583Z,18.57
2018-12-27T19:39:01.699Z,18.20
2018-12-27T19:41:29.971Z,15.35
2018-12-27T19:43:58.267Z,17.92
2018-12-27T19:46:26.559Z,19.23
2018-12-27T19:48:54.848Z,19.45
2018-12-27T19:51:23.155Z,17.57
2018-12-27T19:53:51.513Z,15.23
2018-12-27T19:56:19.878Z,13.88
2018-12-27T19:58:48.245Z,13.55
2018-12-27T20:01:16.512Z,13.50
2018-12-27T20:03:44.787Z,26.42
2018-12-27T20:06:13.096Z,23.15
2018-12-27T20:08:41.415Z,20.95
2018-12-27T20:11:09.696Z,16.50
2018-12-27T20:13:38.005Z,16.75
2018-12-27T20:16:06.279Z,15.78
2018-12-27T20:18:36.290Z,17.12
2018-12-27T20:21:04.617Z,22.90
2018-12-27T20:23:32.971Z,21.95
2018-12-27T20:26:04.248Z,18.17
2018-12-27T20:28:32.783Z,17.87
2018-12-27T20:31:01.059Z,19.32
2018-12-27T20:33:29.332Z,18.75
2018-12-27T20:35:57.634Z,19.87
2018-12-27T20:38:25.982Z,21.55
2018-12-27T20:40:54.260Z,18.30
2018-12-27T20:43:22.564Z,18.92
2018-12-27T20:45:50.840Z,17.27
2018-12-27T20:48:19.111Z,16.85
2018-12-27T20:50:47.499Z,19.62
2018-12-27T20:53:15.779Z,18.98
2018-12-27T20:55:44.051Z,17.10
2018-12-27T20:58:12.351Z,15.08
2018-12-27T21:00:40.628Z,13.08
2018-12-27T21:03:08.906Z,13.40
2018-12-27T21:05:37.284Z,12.98
2018-12-27T21:08:05.563Z,13.28
2018-12-27T21:10:33.911Z,15.83
2018-12-27T21:13:02.700Z,15.55
2018-12-27T21:15:31.395Z,18.40
2018-12-27T21:17:59.667Z,16.10
2018-12-27T21:20:28.057Z,17.50
2018-12-27T21:22:56.331Z,15.13
2018-12-27T21:25:24.727Z,16.27
2018-12-27T21:27:53.100Z,12.93
2018-12-27T21:30:21.378Z,13.28
2018-12-27T21:32:49.665Z,15.43
2018-12-27T21:35:17.961Z,13.75
2018-12-27T21:37:46.236Z,11.80
2018-12-27T21:40:14.516Z,10.85
2018-12-27T21:42:42.817Z,11.15
2018-12-27T21:45:11.169Z,12.00
2018-12-27T21:47:39.445Z,13.22
2018-12-27T21:50:07.743Z,15.08
2018-12-27T21:52:36.116Z,19.50
2018-12-27T21:55:04.442Z,15.40
2018-12-27T21:57:33.511Z,11.95
2018-12-27T22:00:01.788Z,10.60
2018-12-27T22:02:30.140Z,11.18
2018-12-27T22:04:58.444Z,12.28
2018-12-27T22:07:26.715Z,14.90
2018-12-27T22:09:54.987Z,12.10
2018-12-27T22:12:23.542Z,11.08
2018-12-27T22:14:51.820Z,10.15
2018-12-27T22:17:20.111Z,10.18
2018-12-27T22:19:49.418Z,8.25
2018-12-27T22:22:17.691Z,9.60
2018-12-27T22:24:45.963Z,8.55
2018-12-27T22:27:14.409Z,7.42
2018-12-27T22:29:42.675Z,8.13
2018-12-27T22:32:10.947Z,8.95
2018-12-27T22:34:39.352Z,8.90
2018-12-27T22:37:07.618Z,9.15
2018-12-27T22:39:37.631Z,8.98
2018-12-27T22:42:05.924Z,9.55
2018-12-27T22:44:34.191Z,8.93
2018-12-27T22:47:02.458Z,8.25
2018-12-27T22:49:30.743Z,8.70
2018-12-27T22:51:59.020Z,8.58
2018-12-27T22:54:28.255Z,9.63
2018-12-27T22:56:56.598Z,13.50
2018-12-27T22:59:24.868Z,7.92
2018-12-27T23:01:53.134Z,7.90
2018-12-27T23:04:23.923Z,7.10
2018-12-27T23:06:52.183Z,6.42
2018-12-27T23:09:20.459Z,6.90
2018-12-27T23:11:48.749Z,6.55
2018-12-27T23:14:17.047Z,6.35
2018-12-27T23:16:45.306Z,5.47
2018-12-27T23:19:13.633Z,4.97
2018-12-27T23:21:41.895Z,4.92
2018-12-27T23:24:10.243Z,4.53
2018-12-27T23:26:38.536Z,5.00
2018-12-27T23:29:06.804Z,4.45
2018-12-27T23:31:41.250Z,4.33
2018-12-27T23:34:13.143Z,4.87
2018-12-27T23:36:41.459Z,4.15
2018-12-27T23:39:09.732Z,4.15
2018-12-27T23:41:38.432Z,4.22
2018-12-27T23:44:06.758Z,5.15
2018-12-27T23:46:35.023Z,4.58
2018-12-27T23:49:03.313Z,4.60
2018-12-27T23:51:31.586Z,4.65
2018-12-27T23:54:00.112Z,4.62
2018-12-27T23:56:28.405Z,4.53
2018-12-27T23:58:56.663Z,4.60
